sensor_id;sensor_type;location;lat;lon;timestamp;pressure;altitude;pressure_sealevel;temperature;humidity
83551;BME280;74617;47.082;15.524;2024-02-15T00:00:16;97317.72;;;18.87;44.99
83551;BME280;74617;47.082;15.524;2024-02-15T00:02:43;97316.94;;;18.86;45.16
83551;BME280;74617;47.082;15.524;2024-02-15T00:05:10;97318.06;;;18.85;45.08
83551;BME280;74617;47.082;15.524;2024-02-15T00:07:36;97318.84;;;18.86;45.01
83551;BME280;74617;47.082;15.524;2024-02-15T00:10:01;97315.00;;;18.87;45.11
83551;BME280;74617;47.082;15.524;2024-02-15T00:12:29;97308.75;;;18.86;45.04
83551;BME280;74617;47.082;15.524;2024-02-15T00:14:55;97316.13;;;18.86;45.04
83551;BME280;74617;47.082;15.524;2024-02-15T00:17:24;97315.31;;;18.85;45.22
83551;BME280;74617;47.082;15.524;2024-02-15T00:19:49;97305.56;;;18.84;45.25
83551;BME280;74617;47.082;15.524;2024-02-15T00:22:14;97311.00;;;18.84;45.02
83551;BME280;74617;47.082;15.524;2024-02-15T00:24:40;97316.44;;;18.84;44.96
83551;BME280;74617;47.082;15.524;2024-02-15T00:27:08;97316.44;;;18.84;45.04
83551;BME280;74617;47.082;15.524;2024-02-15T00:29:33;97321.09;;;18.84;45.30
83551;BME280;74617;47.082;15.524;2024-02-15T00:32:00;97308.59;;;18.83;45.26
83551;BME280;74617;47.082;15.524;2024-02-15T00:34:26;97301.22;;;18.83;45.02
83551;BME280;74617;47.082;15.524;2024-02-15T00:36:52;97304.28;;;18.82;45.03
83551;BME280;74617;47.082;15.524;2024-02-15T00:39:17;97307.00;;;18.82;45.15
83551;BME280;74617;47.082;15.524;2024-02-15T00:41:46;97307.81;;;18.82;45.14
83551;BME280;74617;47.082;15.524;2024-02-15T00:44:11;97313.56;;;18.81;45.19
83551;BME280;74617;47.082;15.524;2024-02-15T00:46:37;97310.03;;;18.80;45.15
83551;BME280;74617;47.082;15.524;2024-02-15T00:49:04;97314.66;;;18.80;45.39
83551;BME280;74617;47.082;15.524;2024-02-15T00:51:32;97313.84;;;18.79;45.03
83551;BME280;74617;47.082;15.524;2024-02-15T00:54:00;97313.06;;;18.79;45.19
83551;BME280;74617;47.082;15.524;2024-02-15T00:56:26;97319.63;;;18.78;45.03
83551;BME280;74617;47.082;15.524;2024-02-15T00:58:52;97306.00;;;18.78;45.10
83551;BME280;74617;47.082;15.524;2024-02-15T01:01:18;97315.78;;;18.79;45.14
83551;BME280;74617;47.082;15.524;2024-02-15T01:03:43;97310.66;;;18.77;45.08
83551;BME280;74617;47.082;15.524;2024-02-15T01:06:09;97307.13;;;18.77;45.19
83551;BME280;74617;47.082;15.524;2024-02-15T01:08:34;97315.28;;;18.77;45.18
83551;BME280;74617;47.082;15.524;2024-02-15T01:10:59;97311.78;;;18.76;45.02
83551;BME280;74617;47.082;15.524;2024-02-15T01:13:25;97313.38;;;18.77;45.06
83551;BME280;74617;47.082;15.524;2024-02-15T01:15:51;97321.88;;;18.76;45.08
83551;BME280;74617;47.082;15.524;2024-02-15T01:18:16;97319.13;;;18.76;45.21
83551;BME280;74617;47.082;15.524;2024-02-15T01:20:42;97318.34;;;18.75;45.01
83551;BME280;74617;47.082;15.524;2024-02-15T01:23:07;97320.25;;;18.75;45.15
83551;BME280;74617;47.082;15.524;2024-02-15T01:25:33;97312.91;;;18.75;45.14
83551;BME280;74617;47.082;15.524;2024-02-15T01:27:58;97312.09;;;18.75;45.01
83551;BME280;74617;47.082;15.524;2024-02-15T01:30:23;97313.22;;;18.74;45.04
83551;BME280;74617;47.082;15.524;2024-02-15T01:32:49;97310.50;;;18.74;45.30
83551;BME280;74617;47.082;15.524;2024-02-15T01:35:14;97304.22;;;18.73;44.94
83551;BME280;74617;47.082;15.524;2024-02-15T01:37:40;97305.34;;;18.72;45.17
83551;BME280;74617;47.082;15.524;2024-02-15T01:40:06;97302.63;;;18.72;45.12
83551;BME280;74617;47.082;15.524;2024-02-15T01:42:32;97297.16;;;18.72;45.15
83551;BME280;74617;47.082;15.524;2024-02-15T01:44:57;97299.91;;;18.72;45.28
83551;BME280;74617;47.082;15.524;2024-02-15T01:47:23;97300.69;;;18.73;45.11
83551;BME280;74617;47.082;15.524;2024-02-15T01:49:49;97296.38;;;18.72;45.09
83551;BME280;74617;47.082;15.524;2024-02-15T01:52:16;97296.38;;;18.72;44.93
83551;BME280;74617;47.082;15.524;2024-02-15T01:54:42;97300.22;;;18.71;45.05
83551;BME280;74617;47.082;15.524;2024-02-15T01:57:08;97286.94;;;18.69;44.96
83551;BME280;74617;47.082;15.524;2024-02-15T01:59:34;97286.94;;;18.69;45.11
83551;BME280;74617;47.082;15.524;2024-02-15T02:02:00;97289.66;;;18.69;45.28
83551;BME280;74617;47.082;15.524;2024-02-15T02:04:26;97288.84;;;18.69;45.23
83551;BME280;74617;47.082;15.524;2024-02-15T02:06:51;97286.13;;;18.69;45.04
83551;BME280;74617;47.082;15.524;2024-02-15T02:09:21;97284.53;;;18.68;45.02
83551;BME280;74617;47.082;15.524;2024-02-15T02:11:47;97285.31;;;18.68;45.17
83551;BME280;74617;47.082;15.524;2024-02-15T02:14:13;97280.69;;;18.69;45.16
83551;BME280;74617;47.082;15.524;2024-02-15T02:16:39;97281.81;;;18.68;45.19
83551;BME280;74617;47.082;15.524;2024-02-15T02:19:05;97276.34;;;18.68;45.29
83551;BME280;74617;47.082;15.524;2024-02-15T02:21:35;97278.28;;;18.67;45.24
83551;BME280;74617;47.082;15.524;2024-02-15T02:24:02;97279.06;;;18.68;45.17
83551;BME280;74617;47.082;15.524;2024-02-15T02:26:33;97277.47;;;18.67;45.12
83551;BME280;74617;47.082;15.524;2024-02-15T02:28:59;97282.09;;;18.66;45.47
83551;BME280;74617;47.082;15.524;2024-02-15T02:31:25;97281.25;;;18.66;45.03
83551;BME280;74617;47.082;15.524;2024-02-15T02:33:52;97282.09;;;18.66;45.06
83551;BME280;74617;47.082;15.524;2024-02-15T02:36:21;97286.69;;;18.66;45.21
83551;BME280;74617;47.082;15.524;2024-02-15T02:38:46;97282.38;;;18.65;45.33
83551;BME280;74617;47.082;15.524;2024-02-15T02:41:15;97283.97;;;18.66;45.33
83551;BME280;74617;47.082;15.524;2024-02-15T02:43:41;97277.75;;;18.65;45.07
83551;BME280;74617;47.082;15.524;2024-02-15T02:46:10;97276.13;;;18.64;45.01
83551;BME280;74617;47.082;15.524;2024-02-15T02:48:36;97277.25;;;18.63;45.17
83551;BME280;74617;47.082;15.524;2024-02-15T02:51:01;97278.06;;;18.64;45.05
83551;BME280;74617;47.082;15.524;2024-02-15T02:53:27;97269.91;;;18.64;45.14
83551;BME280;74617;47.082;15.524;2024-02-15T02:55:56;97275.34;;;18.64;45.27
83551;BME280;74617;47.082;15.524;2024-02-15T02:58:21;97268.28;;;18.63;45.10
83551;BME280;74617;47.082;15.524;2024-02-15T03:00:48;97274.53;;;18.63;45.30
83551;BME280;74617;47.082;15.524;2024-02-15T03:03:13;97273.75;;;18.63;45.15
83551;BME280;74617;47.082;15.524;2024-02-15T03:05:40;97267.50;;;18.62;45.26
83551;BME280;74617;47.082;15.524;2024-02-15T03:08:08;97266.69;;;18.62;45.07
83551;BME280;74617;47.082;15.524;2024-02-15T03:10:34;97255.81;;;18.62;45.11
83551;BME280;74617;47.082;15.524;2024-02-15T03:13:00;97259.31;;;18.62;45.14
83551;BME280;74617;47.082;15.524;2024-02-15T03:15:25;97262.06;;;18.62;45.26
83551;BME280;74617;47.082;15.524;2024-02-15T03:17:50;97269.41;;;18.62;45.37
83551;BME280;74617;47.082;15.524;2024-02-15T03:20:16;97263.97;;;18.62;45.26
83551;BME280;74617;47.082;15.524;2024-02-15T03:22:56;97267.81;;;18.61;45.18
83551;BME280;74617;47.082;15.524;2024-02-15T03:25:22;97268.63;;;18.61;45.39
83551;BME280;74617;47.082;15.524;2024-02-15T03:27:52;97268.91;;;18.59;45.32
83551;BME280;74617;47.082;15.524;2024-02-15T03:30:19;97260.75;;;18.59;45.37
83551;BME280;74617;47.082;15.524;2024-02-15T03:32:45;97259.94;;;18.59;45.21
83551;BME280;74617;47.082;15.524;2024-02-15T03:35:17;97257.22;;;18.59;45.45
83551;BME280;74617;47.082;15.524;2024-02-15T03:37:43;97258.84;;;18.60;45.27
83551;BME280;74617;47.082;15.524;2024-02-15T03:40:08;97262.66;;;18.59;45.23
83551;BME280;74617;47.082;15.524;2024-02-15T03:42:35;97260.25;;;18.57;45.42
83551;BME280;74617;47.082;15.524;2024-02-15T03:45:05;97256.72;;;18.57;45.28
83551;BME280;74617;47.082;15.524;2024-02-15T03:47:35;97257.84;;;18.56;45.17
83551;BME280;74617;47.082;15.524;2024-02-15T03:50:04;97248.56;;;18.57;45.43
83551;BME280;74617;47.082;15.524;2024-02-15T03:52:30;97245.06;;;18.56;45.19
83551;BME280;74617;47.082;15.524;2024-02-15T03:54:56;97249.69;;;18.56;45.10
83551;BME280;74617;47.082;15.524;2024-02-15T03:57:26;97250.50;;;18.56;45.37
83551;BME280;74617;47.082;15.524;2024-02-15T03:59:52;97248.91;;;18.55;45.30
83551;BME280;74617;47.082;15.524;2024-02-15T04:02:23;97248.91;;;18.55;45.42
83551;BME280;74617;47.082;15.524;2024-02-15T04:04:52;97248.91;;;18.55;45.24
83551;BME280;74617;47.082;15.524;2024-02-15T04:07:18;97248.91;;;18.55;45.25
83551;BME280;74617;47.082;15.524;2024-02-15T04:09:44;97249.69;;;18.56;45.56
83551;BME280;74617;47.082;15.524;2024-02-15T04:12:09;97248.91;;;18.55;45.47
83551;BME280;74617;47.082;15.524;2024-02-15T04:14:35;97248.91;;;18.55;45.25
83551;BME280;74617;47.082;15.524;2024-02-15T04:17:00;97248.91;;;18.55;45.37
83551;BME280;74617;47.082;15.524;2024-02-15T04:19:31;97242.66;;;18.55;45.44
83551;BME280;74617;47.082;15.524;2024-02-15T04:21:56;97254.34;;;18.55;45.29
83551;BME280;74617;47.082;15.524;2024-02-15T04:24:21;97250.00;;;18.54;45.53
83551;BME280;74617;47.082;15.524;2024-02-15T04:26:48;97255.13;;;18.56;45.70
83551;BME280;74617;47.082;15.524;2024-02-15T04:29:17;97258.97;;;18.55;45.40
83551;BME280;74617;47.082;15.524;2024-02-15T04:31:45;97264.41;;;18.55;45.46
83551;BME280;74617;47.082;15.524;2024-02-15T04:34:17;97257.38;;;18.54;45.46
83551;BME280;74617;47.082;15.524;2024-02-15T04:36:47;97257.38;;;18.54;45.46
83551;BME280;74617;47.082;15.524;2024-02-15T04:39:19;97255.47;;;18.54;45.47
83551;BME280;74617;47.082;15.524;2024-02-15T04:41:52;97255.13;;;18.56;45.76
83551;BME280;74617;47.082;15.524;2024-02-15T04:44:18;97261.38;;;18.56;45.96
83551;BME280;74617;47.082;15.524;2024-02-15T04:46:46;97256.72;;;18.57;45.73
83551;BME280;74617;47.082;15.524;2024-02-15T04:49:13;97252.91;;;18.58;46.03
83551;BME280;74617;47.082;15.524;2024-02-15T04:51:39;97250.97;;;18.58;45.85
83551;BME280;74617;47.082;15.524;2024-02-15T04:54:07;97250.97;;;18.58;46.00
83551;BME280;74617;47.082;15.524;2024-02-15T04:56:33;97256.94;;;18.61;46.10
83551;BME280;74617;47.082;15.524;2024-02-15T04:58:58;97256.94;;;18.61;46.19
83551;BME280;74617;47.082;15.524;2024-02-15T05:01:24;97262.38;;;18.61;46.18
83551;BME280;74617;47.082;15.524;2024-02-15T05:03:49;97268.63;;;18.61;46.16
83551;BME280;74617;47.082;15.524;2024-02-15T05:06:14;97269.41;;;18.62;46.01
83551;BME280;74617;47.082;15.524;2024-02-15T05:08:40;97262.38;;;18.61;46.23
83551;BME280;74617;47.082;15.524;2024-02-15T05:11:12;97272.13;;;18.62;46.24
83551;BME280;74617;47.082;15.524;2024-02-15T05:13:45;97267.16;;;18.64;46.29
83551;BME280;74617;47.082;15.524;2024-02-15T05:16:11;97266.38;;;18.63;46.01
83551;BME280;74617;47.082;15.524;2024-02-15T05:18:37;97266.38;;;18.63;46.23
83551;BME280;74617;47.082;15.524;2024-02-15T05:21:05;97269.56;;;18.65;46.31
83551;BME280;74617;47.082;15.524;2024-02-15T05:23:35;97269.31;;;18.67;46.46
83551;BME280;74617;47.082;15.524;2024-02-15T05:26:00;97268.47;;;18.66;46.20
83551;BME280;74617;47.082;15.524;2024-02-15T05:28:26;97264.94;;;18.66;46.41
83551;BME280;74617;47.082;15.524;2024-02-15T05:31:11;97273.94;;;18.66;46.56
83551;BME280;74617;47.082;15.524;2024-02-15T05:33:40;97273.09;;;18.66;46.58
83551;BME280;74617;47.082;15.524;2024-02-15T05:36:12;97266.84;;;18.65;46.18
83551;BME280;74617;47.082;15.524;2024-02-15T05:38:39;97269.91;;;18.64;46.23
83551;BME280;74617;47.082;15.524;2024-02-15T05:41:05;97264.44;;;18.64;46.01
83551;BME280;74617;47.082;15.524;2024-02-15T05:43:35;97269.41;;;18.62;46.11
83551;BME280;74617;47.082;15.524;2024-02-15T05:46:02;97272.13;;;18.62;46.11
83551;BME280;74617;47.082;15.524;2024-02-15T05:48:28;97270.22;;;18.62;46.28
83551;BME280;74617;47.082;15.524;2024-02-15T05:50:56;97263.16;;;18.61;46.14
83551;BME280;74617;47.082;15.524;2024-02-15T05:53:23;97263.16;;;18.61;46.12
83551;BME280;74617;47.082;15.524;2024-02-15T05:55:49;97265.09;;;18.61;46.05
83551;BME280;74617;47.082;15.524;2024-02-15T05:58:15;97265.09;;;18.61;46.16
83551;BME280;74617;47.082;15.524;2024-02-15T06:00:41;97267.81;;;18.61;46.11
83551;BME280;74617;47.082;15.524;2024-02-15T06:03:06;97273.25;;;18.61;46.02
83551;BME280;74617;47.082;15.524;2024-02-15T06:05:34;97269.72;;;18.60;46.00
83551;BME280;74617;47.082;15.524;2024-02-15T06:07:59;97269.72;;;18.60;45.98
83551;BME280;74617;47.082;15.524;2024-02-15T06:10:25;97268.91;;;18.59;46.05
83551;BME280;74617;47.082;15.524;2024-02-15T06:12:51;97272.47;;;18.60;45.99
83551;BME280;74617;47.082;15.524;2024-02-15T06:15:16;97276.59;;;18.57;46.12
83551;BME280;74617;47.082;15.524;2024-02-15T06:17:42;97275.47;;;18.58;46.14
83551;BME280;74617;47.082;15.524;2024-02-15T06:20:11;97288.59;;;18.56;46.10
83551;BME280;74617;47.082;15.524;2024-02-15T06:22:39;97287.78;;;18.56;45.96
83551;BME280;74617;47.082;15.524;2024-02-15T06:25:05;97291.31;;;18.56;45.95
83551;BME280;74617;47.082;15.524;2024-02-15T06:27:31;97292.44;;;18.55;45.84
83551;BME280;74617;47.082;15.524;2024-02-15T06:29:57;97294.03;;;18.56;45.98
83551;BME280;74617;47.082;15.524;2024-02-15T06:32:41;97298.84;;;18.59;45.99
83551;BME280;74617;47.082;15.524;2024-02-15T06:35:25;97291.50;;;18.60;46.13
83551;BME280;74617;47.082;15.524;2024-02-15T06:38:09;97298.56;;;18.61;46.11
83551;BME280;74617;47.082;15.524;2024-02-15T06:40:53;97299.34;;;18.62;46.08
83551;BME280;74617;47.082;15.524;2024-02-15T06:43:19;97298.22;;;18.63;46.05
83551;BME280;74617;47.082;15.524;2024-02-15T06:45:45;97295.50;;;18.63;46.31
83551;BME280;74617;47.082;15.524;2024-02-15T06:48:12;97290.88;;;18.63;46.20
83551;BME280;74617;47.082;15.524;2024-02-15T06:50:38;97300.94;;;18.63;46.16
83551;BME280;74617;47.082;15.524;2024-02-15T06:53:04;97304.47;;;18.63;46.26
83551;BME280;74617;47.082;15.524;2024-02-15T06:55:30;97304.47;;;18.63;46.32
83551;BME280;74617;47.082;15.524;2024-02-15T06:57:56;97306.41;;;18.63;46.26
83551;BME280;74617;47.082;15.524;2024-02-15T07:00:21;97308.31;;;18.62;46.17
83551;BME280;74617;47.082;15.524;2024-02-15T07:02:47;97313.75;;;18.62;46.15
83551;BME280;74617;47.082;15.524;2024-02-15T07:05:14;97311.84;;;18.63;46.32
83551;BME280;74617;47.082;15.524;2024-02-15T07:07:39;97304.78;;;18.62;46.20
83551;BME280;74617;47.082;15.524;2024-02-15T07:10:08;97311.03;;;18.62;46.25
83551;BME280;74617;47.082;15.524;2024-02-15T07:12:34;97312.16;;;18.61;46.16
83551;BME280;74617;47.082;15.524;2024-02-15T07:14:59;97307.19;;;18.63;46.32
83551;BME280;74617;47.082;15.524;2024-02-15T07:17:27;97314.56;;;18.63;46.40
83551;BME280;74617;47.082;15.524;2024-02-15T07:19:53;97315.34;;;18.63;46.15
83551;BME280;74617;47.082;15.524;2024-02-15T07:22:18;97310.72;;;18.64;46.35
83551;BME280;74617;47.082;15.524;2024-02-15T07:24:43;97316.97;;;18.64;46.29
83551;BME280;74617;47.082;15.524;2024-02-15T07:27:09;97317.75;;;18.65;46.33
83551;BME280;74617;47.082;15.524;2024-02-15T07:29:35;97316.16;;;18.64;46.42
83551;BME280;74617;47.082;15.524;2024-02-15T07:32:03;97313.44;;;18.64;46.24
83551;BME280;74617;47.082;15.524;2024-02-15T07:34:30;97322.41;;;18.64;46.26
83551;BME280;74617;47.082;15.524;2024-02-15T07:36:55;97316.97;;;18.64;46.13
83551;BME280;74617;47.082;15.524;2024-02-15T07:39:22;97310.72;;;18.64;46.45
83551;BME280;74617;47.082;15.524;2024-02-15T07:41:56;97308.00;;;18.64;46.72
83551;BME280;74617;47.082;15.524;2024-02-15T07:44:23;97302.22;;;18.65;46.98
83551;BME280;74617;47.082;15.524;2024-02-15T07:46:50;97303.03;;;18.66;47.34
83551;BME280;74617;47.082;15.524;2024-02-15T07:49:15;97294.59;;;18.67;47.17
83551;BME280;74617;47.082;15.524;2024-02-15T07:51:43;97293.50;;;18.68;47.62
83551;BME280;74617;47.082;15.524;2024-02-15T07:54:09;97289.97;;;18.68;47.71
83551;BME280;74617;47.082;15.524;2024-02-15T07:56:34;97290.75;;;18.68;47.61
83551;BME280;74617;47.082;15.524;2024-02-15T07:59:00;97281.81;;;18.68;47.64
83551;BME280;74617;47.082;15.524;2024-02-15T08:01:25;97286.44;;;18.67;47.84
83551;BME280;74617;47.082;15.524;2024-02-15T08:03:51;97279.06;;;18.68;47.75
83551;BME280;74617;47.082;15.524;2024-02-15T08:06:18;97280.19;;;18.67;47.57
83551;BME280;74617;47.082;15.524;2024-02-15T08:08:46;97280.69;;;18.69;47.36
83551;BME280;74617;47.082;15.524;2024-02-15T08:11:13;97276.84;;;18.70;47.70
83551;BME280;74617;47.082;15.524;2024-02-15T08:16:11;97293.16;;;18.70;47.78
83551;BME280;74617;47.082;15.524;2024-02-15T08:18:38;97293.16;;;18.70;47.69
83551;BME280;74617;47.082;15.524;2024-02-15T08:21:04;97288.53;;;18.70;47.79
83551;BME280;74617;47.082;15.524;2024-02-15T08:23:30;97297.50;;;18.71;47.73
83551;BME280;74617;47.082;15.524;2024-02-15T08:25:55;97285.47;;;18.72;47.74
83551;BME280;74617;47.082;15.524;2024-02-15T08:28:22;97289.81;;;18.73;47.97
83551;BME280;74617;47.082;15.524;2024-02-15T08:30:48;97290.94;;;18.72;48.07
83551;BME280;74617;47.082;15.524;2024-02-15T08:33:13;97289.00;;;18.72;47.92
83551;BME280;74617;47.082;15.524;2024-02-15T08:35:39;97288.72;;;18.74;47.80
83551;BME280;74617;47.082;15.524;2024-02-15T08:38:06;97287.09;;;18.73;48.00
83551;BME280;74617;47.082;15.524;2024-02-15T08:40:31;97294.16;;;18.74;47.89
83551;BME280;74617;47.082;15.524;2024-02-15T08:42:57;97295.75;;;18.75;47.83
83551;BME280;74617;47.082;15.524;2024-02-15T08:45:22;97288.72;;;18.74;48.02
83551;BME280;74617;47.082;15.524;2024-02-15T08:47:48;97291.13;;;18.75;47.93
83551;BME280;74617;47.082;15.524;2024-02-15T08:50:18;97291.91;;;18.76;48.43
83551;BME280;74617;47.082;15.524;2024-02-15T08:52:44;97284.22;;;18.78;48.20
83551;BME280;74617;47.082;15.524;2024-02-15T08:55:10;97287.28;;;18.76;48.31
83551;BME280;74617;47.082;15.524;2024-02-15T08:57:36;97283.75;;;18.76;48.15
83551;BME280;74617;47.082;15.524;2024-02-15T09:00:05;97272.88;;;18.76;48.21
83551;BME280;74617;47.082;15.524;2024-02-15T09:02:38;97277.50;;;18.75;48.00
83551;BME280;74617;47.082;15.524;2024-02-15T09:05:03;97268.22;;;18.76;48.22
83551;BME280;74617;47.082;15.524;2024-02-15T09:07:29;97270.13;;;18.76;48.33
83551;BME280;74617;47.082;15.524;2024-02-15T09:09:55;97270.94;;;18.76;48.10
83551;BME280;74617;47.082;15.524;2024-02-15T09:12:21;97267.41;;;18.76;48.14
83551;BME280;74617;47.082;15.524;2024-02-15T09:14:47;97263.09;;;18.75;48.12
83551;BME280;74617;47.082;15.524;2024-02-15T09:17:13;97263.09;;;18.75;47.98
83551;BME280;74617;47.082;15.524;2024-02-15T09:19:39;97264.22;;;18.74;48.18
83551;BME280;74617;47.082;15.524;2024-02-15T09:22:04;97258.78;;;18.74;48.10
83551;BME280;74617;47.082;15.524;2024-02-15T09:24:32;97261.50;;;18.74;47.81
83551;BME280;74617;47.082;15.524;2024-02-15T09:27:04;97266.94;;;18.74;47.96
83551;BME280;74617;47.082;15.524;2024-02-15T09:29:29;97262.59;;;18.73;48.21
83551;BME280;74617;47.082;15.524;2024-02-15T09:31:58;97270.75;;;18.73;48.02
83551;BME280;74617;47.082;15.524;2024-02-15T09:34:24;97273.47;;;18.73;48.08
83551;BME280;74617;47.082;15.524;2024-02-15T09:36:50;97271.56;;;18.73;47.92
83551;BME280;74617;47.082;15.524;2024-02-15T09:39:15;97272.38;;;18.74;47.92
83551;BME280;74617;47.082;15.524;2024-02-15T09:41:42;97281.63;;;18.73;48.03
83551;BME280;74617;47.082;15.524;2024-02-15T09:44:08;97273.47;;;18.73;47.86
83551;BME280;74617;47.082;15.524;2024-02-15T09:46:42;97276.19;;;18.73;47.74
83551;BME280;74617;47.082;15.524;2024-02-15T09:49:11;97273.78;;;18.71;47.97
83551;BME280;74617;47.082;15.524;2024-02-15T09:51:37;97264.81;;;18.71;47.83
83551;BME280;74617;47.082;15.524;2024-02-15T09:54:04;97273.00;;;18.71;47.82
83551;BME280;74617;47.082;15.524;2024-02-15T09:56:30;97267.53;;;18.71;47.69
83551;BME280;74617;47.082;15.524;2024-02-15T09:58:57;97263.22;;;18.70;47.70
83551;BME280;74617;47.082;15.524;2024-02-15T10:01:26;97265.94;;;18.70;47.84
83551;BME280;74617;47.082;15.524;2024-02-15T10:03:52;97266.75;;;18.70;47.97
83551;BME280;74617;47.082;15.524;2024-02-15T10:06:19;97262.09;;;18.71;47.86
83551;BME280;74617;47.082;15.524;2024-02-15T10:08:45;97262.09;;;18.71;47.87
83551;BME280;74617;47.082;15.524;2024-02-15T10:11:12;97255.06;;;18.70;47.67
83551;BME280;74617;47.082;15.524;2024-02-15T10:13:38;97252.34;;;18.70;47.82
83551;BME280;74617;47.082;15.524;2024-02-15T10:16:30;97249.63;;;18.70;47.78
83551;BME280;74617;47.082;15.524;2024-02-15T10:19:09;97251.53;;;18.69;47.64
83551;BME280;74617;47.082;15.524;2024-02-15T10:21:35;97241.44;;;18.70;47.73
83551;BME280;74617;47.082;15.524;2024-02-15T10:24:06;97242.25;;;18.70;47.85
83551;BME280;74617;47.082;15.524;2024-02-15T10:26:32;97244.16;;;18.70;47.75
83551;BME280;74617;47.082;15.524;2024-02-15T10:29:11;97249.63;;;18.70;47.70
83551;BME280;74617;47.082;15.524;2024-02-15T10:31:38;97241.44;;;18.70;47.93
83551;BME280;74617;47.082;15.524;2024-02-15T10:34:05;97239.84;;;18.69;47.85
83551;BME280;74617;47.082;15.524;2024-02-15T10:36:32;97238.72;;;18.70;47.82
83551;BME280;74617;47.082;15.524;2024-02-15T10:39:16;97232.47;;;18.69;47.64
83551;BME280;74617;47.082;15.524;2024-02-15T10:41:52;97232.47;;;18.69;47.86
83551;BME280;74617;47.082;15.524;2024-02-15T10:44:22;97223.53;;;18.69;47.67
83551;BME280;74617;47.082;15.524;2024-02-15T10:46:50;97222.41;;;18.70;47.65
83551;BME280;74617;47.082;15.524;2024-02-15T10:49:18;97228.97;;;18.69;47.73
83551;BME280;74617;47.082;15.524;2024-02-15T10:51:54;97233.28;;;18.70;47.58
83551;BME280;74617;47.082;15.524;2024-02-15T10:54:43;97224.31;;;18.69;47.53
83551;BME280;74617;47.082;15.524;2024-02-15T10:57:12;97225.13;;;18.70;47.78
83551;BME280;74617;47.082;15.524;2024-02-15T10:59:54;97216.97;;;18.70;47.67
83551;BME280;74617;47.082;15.524;2024-02-15T11:02:26;97216.97;;;18.70;47.64
83551;BME280;74617;47.082;15.524;2024-02-15T11:04:58;97211.50;;;18.70;47.59
83551;BME280;74617;47.082;15.524;2024-02-15T11:07:28;97213.09;;;18.71;47.60
83551;BME280;74617;47.082;15.524;2024-02-15T11:09:57;97207.66;;;18.71;47.63
83551;BME280;74617;47.082;15.524;2024-02-15T11:12:23;97214.72;;;18.72;47.58
83551;BME280;74617;47.082;15.524;2024-02-15T11:14:51;97206.53;;;18.72;47.58
83551;BME280;74617;47.082;15.524;2024-02-15T11:20:03;97201.91;;;18.72;47.69
83551;BME280;74617;47.082;15.524;2024-02-15T11:22:34;97192.94;;;18.72;47.66
83551;BME280;74617;47.082;15.524;2024-02-15T11:25:05;97193.72;;;18.72;47.68
83551;BME280;74617;47.082;15.524;2024-02-15T11:27:37;97184.78;;;18.72;47.47
83551;BME280;74617;47.082;15.524;2024-02-15T11:30:04;97193.72;;;18.72;47.47
83551;BME280;74617;47.082;15.524;2024-02-15T11:32:50;97189.88;;;18.73;47.61
83551;BME280;74617;47.082;15.524;2024-02-15T11:35:22;97190.22;;;18.72;47.50
83551;BME280;74617;47.082;15.524;2024-02-15T11:40:59;97189.09;;;18.73;47.64
83551;BME280;74617;47.082;15.524;2024-02-15T11:46:14;97185.56;;;18.72;47.47
83551;BME280;74617;47.082;15.524;2024-02-15T11:48:40;97182.84;;;18.72;47.49
83551;BME280;74617;47.082;15.524;2024-02-15T11:51:06;97175.00;;;18.71;47.51
83551;BME280;74617;47.082;15.524;2024-02-15T11:53:34;97182.84;;;18.72;47.53
83551;BME280;74617;47.082;15.524;2024-02-15T11:56:03;97180.44;;;18.71;47.50
83551;BME280;74617;47.082;15.524;2024-02-15T11:58:30;97180.44;;;18.71;47.10
83551;BME280;74617;47.082;15.524;2024-02-15T12:01:11;97176.94;;;18.70;47.49
83551;BME280;74617;47.082;15.524;2024-02-15T12:03:55;97181.25;;;18.71;47.52
83551;BME280;74617;47.082;15.524;2024-02-15T12:06:47;97175.00;;;18.71;47.51
83551;BME280;74617;47.082;15.524;2024-02-15T12:09:31;97175.00;;;18.71;47.72
83551;BME280;74617;47.082;15.524;2024-02-15T12:12:15;97175.00;;;18.71;47.48
83551;BME280;74617;47.082;15.524;2024-02-15T12:15:00;97165.72;;;18.72;47.37
83551;BME280;74617;47.082;15.524;2024-02-15T12:17:44;97166.03;;;18.70;47.50
83551;BME280;74617;47.082;15.524;2024-02-15T12:20:29;97163.31;;;18.70;47.47
83551;BME280;74617;47.082;15.524;2024-02-15T12:22:54;97164.13;;;18.71;47.36
83551;BME280;74617;47.082;15.524;2024-02-15T12:25:21;97153.22;;;18.71;47.28
83551;BME280;74617;47.082;15.524;2024-02-15T12:27:55;97158.69;;;18.71;47.34
83551;BME280;74617;47.082;15.524;2024-02-15T12:30:21;97160.28;;;18.72;47.50
83551;BME280;74617;47.082;15.524;2024-02-15T12:32:49;97158.69;;;18.71;47.32
83551;BME280;74617;47.082;15.524;2024-02-15T12:35:19;97162.66;;;18.73;47.41
83551;BME280;74617;47.082;15.524;2024-02-15T12:38:01;97158.06;;;18.74;47.57
83551;BME280;74617;47.082;15.524;2024-02-15T12:40:37;97153.41;;;18.74;47.17
83551;BME280;74617;47.082;15.524;2024-02-15T12:43:07;97160.94;;;18.77;47.56
83551;BME280;74617;47.082;15.524;2024-02-15T12:45:35;97156.59;;;18.76;47.52
83551;BME280;74617;47.082;15.524;2024-02-15T12:48:04;97152.75;;;18.77;47.98
83551;BME280;74617;47.082;15.524;2024-02-15T12:50:30;97150.84;;;18.78;47.75
83551;BME280;74617;47.082;15.524;2024-02-15T12:52:56;97142.66;;;18.78;47.72
83551;BME280;74617;47.082;15.524;2024-02-15T12:55:37;97136.09;;;18.79;47.57
83551;BME280;74617;47.082;15.524;2024-02-15T12:58:03;97130.66;;;18.79;47.67
83551;BME280;74617;47.082;15.524;2024-02-15T13:00:32;97130.38;;;18.80;47.67
83551;BME280;74617;47.082;15.524;2024-02-15T13:02:59;97133.09;;;18.80;47.82
83551;BME280;74617;47.082;15.524;2024-02-15T13:05:26;97133.88;;;18.81;47.70